Time;durP1;ratioP1;P1;durP2;ratioP2;P2;SDS_P1;SDS_P2;PMS_P1;PMS_P2;Temp;Humidity;BMP_temperature;BMP_pressure;BME280_temperature;BME280_humidity;BME280_pressure;Samples;Min_cycle;Max_cycle;Signal;HPM_P1;HPM_P2
2023/03/24 00:02:03;;;;;;;1999.90;999.90;;;13.20;99.90;;;;;;5052644;28;20504;-73
2023/03/24 00:04:29;;;;;;;1999.90;999.90;;;13.30;99.90;;;;;;5052518;28;20095;-77
2023/03/24 00:06:55;;;;;;;1999.90;999.90;;;13.30;99.90;;;;;;5052475;28;20079;-73
2023/03/24 00:09:20;;;;;;;1999.90;999.90;;;13.30;99.90;;;;;;5052367;28;20025;-73
2023/03/24 00:11:46;;;;;;;1999.90;999.90;;;13.40;99.90;;;;;;5052073;28;20072;-73
2023/03/24 00:14:12;;;;;;;1999.90;999.90;;;13.40;99.90;;;;;;5052635;28;20035;-77
2023/03/24 00:16:41;;;;;;;1999.90;999.90;;;13.30;99.90;;;;;;5052088;28;20443;-77
2023/03/24 00:19:09;;;;;;;1999.90;999.90;;;13.40;99.90;;;;;;5052413;28;20092;-76
2023/03/24 00:21:36;;;;;;;1999.90;999.90;;;13.40;99.90;;;;;;5055196;28;20064;-76
2023/03/24 00:24:03;;;;;;;1999.90;999.90;;;13.40;99.90;;;;;;5056207;28;20025;-73
2023/03/24 00:26:30;;;;;;;1999.90;999.90;;;13.40;99.90;;;;;;5056102;28;20025;-73
2023/03/24 00:28:56;;;;;;;1999.90;999.90;;;13.40;99.90;;;;;;5054691;28;20107;-77
2023/03/24 00:31:23;;;;;;;1999.90;999.90;;;13.40;99.90;;;;;;5049459;28;20072;-77
2023/03/24 00:33:49;;;;;;;1999.90;999.90;;;13.40;99.90;;;;;;5035992;28;20018;-77
2023/03/24 00:36:18;;;;;;;1999.90;999.90;;;13.40;99.90;;;;;;5036311;28;20451;-74
2023/03/24 00:38:44;;;;;;;1999.90;999.90;;;13.40;99.90;;;;;;5033886;28;20071;-73
2023/03/24 00:41:09;;;;;;;1999.90;999.90;;;13.40;99.90;;;;;;5041952;28;20398;-78
2023/03/24 00:43:36;;;;;;;1999.90;999.90;;;13.40;99.90;;;;;;5055708;28;20021;-77
2023/03/24 00:46:05;;;;;;;1999.90;999.90;;;13.40;99.90;;;;;;5055667;28;20028;-78
2023/03/24 00:48:31;;;;;;;1999.90;999.90;;;13.30;99.90;;;;;;5055592;28;20081;-74
2023/03/24 00:50:59;;;;;;;1999.90;999.90;;;13.40;99.90;;;;;;5055491;28;20029;-73
2023/03/24 00:53:28;;;;;;;1999.90;999.90;;;13.30;99.90;;;;;;5055100;28;20025;-77
2023/03/24 00:55:54;;;;;;;1999.90;999.90;;;13.30;99.90;;;;;;5054252;28;20021;-78
2023/03/24 00:58:20;;;;;;;1999.90;999.90;;;13.30;99.90;;;;;;5055743;28;20452;-79
2023/03/24 01:00:48;;;;;;;1999.90;999.90;;;13.30;99.90;;;;;;5055530;28;20037;-78
2023/03/24 01:03:14;;;;;;;1999.90;999.90;;;13.30;99.90;;;;;;5055300;28;20056;-78
2023/03/24 01:05:41;;;;;;;1999.90;999.90;;;13.30;99.90;;;;;;5055200;28;20043;-73
2023/03/24 01:08:09;;;;;;;1999.90;999.90;;;13.30;99.90;;;;;;5055321;28;20101;-78
2023/03/24 01:10:48;;;;;;;1999.90;999.90;;;13.30;99.90;;;;;;5043796;28;20034;-77
2023/03/24 01:13:19;;;;;;;1999.90;999.90;;;13.30;99.90;;;;;;5044177;28;20025;-74
2023/03/24 01:15:45;;;;;;;1999.90;999.90;;;13.40;99.90;;;;;;5055114;28;20417;-73
2023/03/24 01:18:14;;;;;;;1999.90;999.90;;;13.40;99.90;;;;;;5054283;28;20044;-74
2023/03/24 01:20:44;;;;;;;1999.90;999.90;;;13.40;99.90;;;;;;5055003;28;20030;-74
2023/03/24 01:23:11;;;;;;;1999.90;999.90;;;13.40;99.90;;;;;;5054978;28;20044;-76
2023/03/24 01:25:37;;;;;;;1999.90;999.90;;;13.30;99.90;;;;;;5054860;28;20033;-73
2023/03/24 01:28:03;;;;;;;1999.90;999.90;;;13.20;99.90;;;;;;5054787;28;20025;-73
2023/03/24 01:30:30;;;;;;;1999.90;999.90;;;13.10;99.90;;;;;;5054813;28;20594;-73
2023/03/24 01:32:56;;;;;;;1999.90;999.90;;;13.00;99.90;;;;;;5054154;28;20024;-77
2023/03/24 01:35:25;;;;;;;1999.90;999.90;;;13.00;99.90;;;;;;5054835;28;20035;-77
2023/03/24 01:37:51;;;;;;;1999.90;999.90;;;13.00;99.90;;;;;;5053428;28;20025;-76
2023/03/24 01:40:27;;;;;;;1999.90;999.90;;;12.90;99.90;;;;;;5054660;28;20029;-77
2023/03/24 01:42:52;;;;;;;1999.90;999.90;;;12.90;99.90;;;;;;5054522;28;20399;-73
2023/03/24 01:45:55;;;;;;;1999.90;999.90;;;12.80;99.90;;;;;;5054552;28;20028;-77
2023/03/24 01:48:35;;;;;;;1999.90;999.90;;;12.60;99.90;;;;;;5054462;28;20044;-74
2023/03/24 01:51:34;;;;;;;1999.90;999.90;;;12.60;99.90;;;;;;5054500;28;20029;-78
2023/03/24 01:54:17;;;;;;;1999.90;999.90;;;12.50;99.90;;;;;;5034265;28;20101;-73
2023/03/24 01:56:48;;;;;;;1999.90;999.90;;;12.40;99.90;;;;;;5033693;28;20017;-73
2023/03/24 01:59:26;;;;;;;1999.90;999.90;;;12.40;99.90;;;;;;5034597;28;20033;-73
2023/03/24 02:02:01;;;;;;;1999.90;999.90;;;12.40;99.90;;;;;;5034236;28;20041;-73
2023/03/24 02:04:29;;;;;;;1999.90;999.90;;;12.40;99.90;;;;;;5034476;28;20021;-78
2023/03/24 02:06:55;;;;;;;1999.90;999.90;;;12.40;99.90;;;;;;5033911;28;20399;-73
2023/03/24 02:09:21;;;;;;;1999.90;999.90;;;12.30;99.90;;;;;;5033932;28;20032;-72
2023/03/24 02:11:47;;;;;;;1999.90;999.90;;;12.30;99.90;;;;;;5033564;28;20112;-73
2023/03/24 02:14:13;;;;;;;1999.90;999.90;;;12.30;99.90;;;;;;5034457;28;20018;-78
2023/03/24 02:17:00;;;;;;;1999.90;999.90;;;12.20;99.90;;;;;;5039244;28;20025;-78
2023/03/24 02:19:37;;;;;;;1999.90;999.90;;;12.30;99.90;;;;;;5053818;28;20021;-73
2023/03/24 02:22:41;;;;;;;1999.90;999.90;;;12.20;99.90;;;;;;5053660;28;20036;-73
2023/03/24 02:25:25;;;;;;;;;;;12.20;99.90;;;;;;5054149;28;20017;-72
2023/03/24 02:28:09;;;;;;;1999.90;999.90;;;12.20;99.90;;;;;;5053465;28;19905;-79
2023/03/24 02:30:53;;;;;;;1999.90;999.90;;;12.20;99.90;;;;;;5053378;28;20506;-78
2023/03/24 02:33:50;;;;;;;1999.90;999.90;;;12.20;99.90;;;;;;5034023;28;20029;-73
2023/03/24 02:36:37;;;;;;;1999.90;999.90;;;12.20;99.90;;;;;;5033869;28;20100;-73
2023/03/24 02:39:36;;;;;;;1999.90;999.90;;;12.20;99.90;;;;;;5033527;28;20564;-73
2023/03/24 02:42:13;;;;;;;1999.90;999.90;;;12.20;99.90;;;;;;5047328;28;20033;-78
2023/03/24 02:45:10;;;;;;;1999.90;999.90;;;12.20;99.90;;;;;;5051191;28;20384;-79
2023/03/24 02:47:54;;;;;;;1999.90;999.90;;;12.20;99.90;;;;;;5052093;28;20067;-73
2023/03/24 02:50:23;;;;;;;1999.90;999.90;;;12.20;99.90;;;;;;5053269;28;20029;-79
2023/03/24 02:53:07;;;;;;;1999.90;999.90;;;12.20;99.90;;;;;;5052011;28;20013;-78
2023/03/24 02:55:42;;;;;;;1999.90;999.90;;;12.20;99.90;;;;;;5053395;28;20036;-78
2023/03/24 02:58:15;;;;;;;1999.90;999.90;;;12.20;99.90;;;;;;5052970;28;20100;-78
2023/03/24 03:00:46;;;;;;;1999.90;999.90;;;12.20;99.90;;;;;;5053454;28;20086;-73
2023/03/24 03:03:20;;;;;;;1999.90;999.90;;;12.20;99.90;;;;;;5053515;28;20103;-73
2023/03/24 03:05:57;;;;;;;1999.90;999.90;;;12.30;99.90;;;;;;5053109;28;20025;-79
2023/03/24 03:08:27;;;;;;;1999.90;999.90;;;12.20;99.90;;;;;;5052952;28;20021;-78
2023/03/24 03:10:56;;;;;;;1999.90;999.90;;;12.30;99.90;;;;;;5040489;28;20026;-73
2023/03/24 03:13:31;;;;;;;1999.90;999.90;;;12.20;99.90;;;;;;5048574;28;20389;-72
2023/03/24 03:16:02;;;;;;;1999.90;999.90;;;12.20;99.90;;;;;;5033143;28;20013;-72
2023/03/24 03:18:48;;;;;;;1999.90;999.90;;;12.20;99.90;;;;;;5033230;28;20024;-72
2023/03/24 03:21:17;;;;;;;1999.90;999.90;;;12.20;99.90;;;;;;5033114;28;20029;-77
2023/03/24 03:24:10;;;;;;;1999.90;999.90;;;12.20;99.90;;;;;;5032932;28;20025;-78
2023/03/24 03:26:36;;;;;;;1999.90;999.90;;;12.20;99.90;;;;;;5022780;28;20038;-72
2023/03/24 03:29:10;;;;;;;1999.90;999.90;;;12.20;99.90;;;;;;5033316;28;20485;-72
2023/03/24 03:31:51;;;;;;;1999.90;999.90;;;12.20;99.90;;;;;;5040931;28;20080;-72
2023/03/24 03:34:47;;;;;;;1999.90;999.90;;;12.10;99.90;;;;;;5052977;28;20021;-78
2023/03/24 03:37:37;;;;;;;1999.90;999.90;;;12.10;99.90;;;;;;5053086;28;20025;-79
2023/03/24 03:40:13;;;;;;;1999.90;999.90;;;12.10;99.90;;;;;;5052647;28;20025;-78
2023/03/24 03:42:39;;;;;;;1999.90;999.90;;;12.00;99.90;;;;;;5052828;28;20108;-77
2023/03/24 03:45:08;;;;;;;1999.90;999.90;;;12.10;99.90;;;;;;5052593;28;20055;-78
2023/03/24 03:47:34;;;;;;;1999.90;999.90;;;12.10;99.90;;;;;;5052662;28;20045;-78
2023/03/24 03:50:00;;;;;;;1999.90;999.90;;;12.10;99.90;;;;;;5052696;28;20028;-78
2023/03/24 03:52:26;;;;;;;1999.90;999.90;;;12.00;99.90;;;;;;5052755;28;20403;-72
2023/03/24 03:54:52;;;;;;;1999.90;999.90;;;12.00;99.90;;;;;;5052502;28;20028;-78
2023/03/24 03:57:19;;;;;;;1999.90;999.90;;;11.90;99.90;;;;;;5055696;28;20490;-77
2023/03/24 03:59:45;;;;;;;1999.90;999.90;;;12.00;99.90;;;;;;5056628;28;20388;-79
2023/03/24 04:02:35;;;;;;;1999.90;999.90;;;12.00;99.90;;;;;;5056812;28;20025;-72
2023/03/24 04:05:28;;;;;;;1999.90;999.90;;;12.00;99.90;;;;;;5056708;28;20025;-79
2023/03/24 04:08:08;;;;;;;1999.90;999.90;;;12.00;99.90;;;;;;5056067;28;20111;-72
2023/03/24 04:10:59;;;;;;;1999.90;999.90;;;12.00;99.90;;;;;;5045270;28;20404;-78
2023/03/24 04:13:39;;;;;;;1999.90;999.90;;;11.90;99.90;;;;;;5036470;28;20099;-79
2023/03/24 04:16:16;;;;;;;1999.90;999.90;;;11.90;99.90;;;;;;5036801;28;20017;-79
2023/03/24 04:18:58;;;;;;;1999.90;999.90;;;11.90;99.90;;;;;;5055703;28;20025;-72
2023/03/24 04:21:57;;;;;;;1999.90;999.90;;;11.80;99.90;;;;;;5055918;28;20021;-73
2023/03/24 04:24:33;;;;;;;1999.90;999.90;;;11.70;99.90;;;;;;5055847;28;20029;-79
2023/03/24 04:27:15;;;;;;;1999.90;999.90;;;11.70;99.90;;;;;;5056071;28;20108;-72
2023/03/24 04:29:51;;;;;;;1999.90;999.90;;;11.70;99.90;;;;;;5056229;28;20025;-72
2023/03/24 04:32:40;;;;;;;1999.90;999.90;;;11.70;99.90;;;;;;5055685;28;20529;-72
2023/03/24 04:35:19;;;;;;;1999.90;999.90;;;11.70;99.90;;;;;;5056050;28;20387;-79
2023/03/24 04:37:47;;;;;;;1999.90;999.90;;;11.70;99.90;;;;;;5055838;28;20051;-79
2023/03/24 04:40:16;;;;;;;1999.90;999.90;;;11.60;99.90;;;;;;5055514;28;20040;-79
2023/03/24 04:42:46;;;;;;;1999.90;999.90;;;11.50;99.90;;;;;;5055715;28;20022;-72
2023/03/24 04:45:13;;;;;;;1999.90;999.90;;;11.60;99.90;;;;;;5055959;28;20021;-73
2023/03/24 04:47:45;;;;;;;1999.90;999.90;;;11.50;99.90;;;;;;5055294;28;20558;-79
2023/03/24 04:50:11;;;;;;;1999.90;999.90;;;11.50;99.90;;;;;;5055279;28;20036;-79
2023/03/24 04:52:39;;;;;;;1999.90;999.90;;;11.50;99.90;;;;;;5055677;28;20423;-80
2023/03/24 04:55:24;;;;;;;1999.90;999.90;;;11.60;99.90;;;;;;5055286;28;20092;-79
2023/03/24 04:57:51;;;;;;;1999.90;999.90;;;11.60;99.90;;;;;;5054699;28;20021;-72
2023/03/24 05:00:17;;;;;;;1999.90;999.90;;;11.50;99.90;;;;;;5055207;28;20020;-79
2023/03/24 05:02:44;;;;;;;1999.90;999.90;;;11.50;99.90;;;;;;5055437;28;20075;-79
2023/03/24 05:05:10;;;;;;;1999.90;999.90;;;11.60;99.90;;;;;;5055332;28;20071;-79
2023/03/24 05:07:36;;;;;;;1999.90;999.90;;;11.60;99.90;;;;;;5054521;28;20052;-72
2023/03/24 05:10:01;;;;;;;1999.90;999.90;;;11.60;99.90;;;;;;5049763;28;20241;-79
2023/03/24 05:12:27;;;;;;;1999.90;999.90;;;11.70;99.90;;;;;;5034740;28;20021;-72
2023/03/24 05:14:53;;;;;;;1999.90;999.90;;;11.70;99.90;;;;;;5035225;28;20049;-72
2023/03/24 05:17:18;;;;;;;1999.90;999.90;;;11.70;99.90;;;;;;5045827;28;20376;-79
2023/03/24 05:19:44;;;;;;;1999.90;999.90;;;11.80;99.90;;;;;;5055182;28;20100;-79
2023/03/24 05:22:09;;;;;;;1999.90;999.90;;;11.80;99.90;;;;;;5055555;28;20025;-72
2023/03/24 05:24:35;;;;;;;1999.90;999.90;;;11.80;99.90;;;;;;5054560;28;20541;-72
2023/03/24 05:27:01;;;;;;;1999.90;999.90;;;11.80;99.90;;;;;;5050456;28;20025;-79
2023/03/24 05:29:26;;;;;;;1999.90;999.90;;;11.80;99.90;;;;;;5055031;28;20025;-79
2023/03/24 05:31:52;;;;;;;1999.90;999.90;;;11.80;99.90;;;;;;5054863;28;20032;-79
2023/03/24 05:34:17;;;;;;;1999.90;999.90;;;11.80;99.90;;;;;;5053760;28;20021;-72
2023/03/24 05:36:43;;;;;;;1999.90;999.90;;;11.80;99.90;;;;;;5054396;28;20420;-72
2023/03/24 05:39:08;;;;;;;1999.90;999.90;;;11.80;99.90;;;;;;5054610;28;20032;-72
2023/03/24 05:41:34;;;;;;;1999.90;999.90;;;11.90;99.90;;;;;;5054144;28;20538;-73
2023/03/24 05:44:00;;;;;;;1999.90;999.90;;;11.90;99.90;;;;;;5054383;28;20033;-72
2023/03/24 05:46:25;;;;;;;1999.90;999.90;;;11.80;99.90;;;;;;5054322;28;20025;-79
2023/03/24 05:48:51;;;;;;;1999.90;999.90;;;11.80;99.90;;;;;;5052829;28;20045;-79
2023/03/24 05:51:16;;;;;;;1999.90;999.90;;;11.70;99.90;;;;;;5054517;28;20108;-72
2023/03/24 05:53:42;;;;;;;1999.90;999.90;;;11.80;99.90;;;;;;5053875;28;20040;-78
2023/03/24 05:56:11;;;;;;;1999.90;999.90;;;11.80;99.90;;;;;;5054221;28;20044;-72
2023/03/24 05:58:38;;;;;;;1999.90;999.90;;;11.70;99.90;;;;;;5053536;28;20043;-72
2023/03/24 06:01:10;;;;;;;1999.90;999.90;;;11.70;99.90;;;;;;5054152;28;20075;-72
2023/03/24 06:03:39;;;;;;;1999.90;999.90;;;11.70;99.90;;;;;;5053905;28;20029;-72
2023/03/24 06:06:08;;;;;;;1999.90;999.90;;;11.70;99.90;;;;;;5053942;28;20025;-73
2023/03/24 06:08:35;;;;;;;1999.90;999.90;;;11.70;99.90;;;;;;5054062;28;20025;-79
2023/03/24 06:11:02;;;;;;;1999.90;999.90;;;11.70;99.90;;;;;;5040981;28;20034;-79
2023/03/24 06:13:31;;;;;;;1999.90;999.90;;;11.70;99.90;;;;;;5033948;28;20061;-72
2023/03/24 06:15:57;;;;;;;1999.90;999.90;;;11.60;99.90;;;;;;5033902;28;20021;-72
2023/03/24 06:18:26;;;;;;;1999.90;999.90;;;11.60;99.90;;;;;;5053517;28;20016;-79
2023/03/24 06:20:55;;;;;;;1999.90;999.90;;;11.60;99.90;;;;;;5053894;28;20243;-78
2023/03/24 06:23:26;;;;;;;1999.90;999.90;;;11.60;99.90;;;;;;5054056;28;20052;-78
2023/03/24 06:25:53;;;;;;;1999.90;999.90;;;11.60;99.90;;;;;;5052914;28;20021;-77
2023/03/24 06:28:19;;;;;;;1999.90;999.90;;;11.60;99.90;;;;;;5053556;28;20469;-78
2023/03/24 06:30:46;;;;;;;1999.90;999.90;;;11.60;99.90;;;;;;5053493;28;20422;-79
2023/03/24 06:33:12;;;;;;;1999.90;999.90;;;11.60;99.90;;;;;;5053273;28;20032;-79
2023/03/24 06:35:39;;;;;;;1999.90;999.90;;;11.60;99.90;;;;;;5048432;28;20025;-79
2023/03/24 06:38:05;;;;;;;1999.90;999.90;;;11.60;99.90;;;;;;5033664;28;20048;-79
2023/03/24 06:40:31;;;;;;;1999.90;999.90;;;11.60;99.90;;;;;;5049574;28;20144;-73
2023/03/24 06:42:58;;;;;;;1999.90;999.90;;;11.60;99.90;;;;;;5053617;28;20154;-72
2023/03/24 06:45:24;;;;;;;1999.90;999.90;;;11.60;99.90;;;;;;5053300;28;20460;-78
2023/03/24 06:47:54;;;;;;;1999.90;999.90;;;11.70;99.90;;;;;;5052946;28;20060;-79
2023/03/24 06:50:20;;;;;;;1999.90;999.90;;;11.80;99.90;;;;;;5051692;28;20372;-78
2023/03/24 06:52:45;;;;;;;1999.90;999.90;;;11.90;99.90;;;;;;5042800;28;20025;-73
2023/03/24 06:55:11;;;;;;;1999.90;999.90;;;12.00;99.90;;;;;;5049370;28;20380;-72
2023/03/24 06:57:37;;;;;;;1999.90;999.90;;;12.00;99.90;;;;;;5051452;28;20041;-79
2023/03/24 07:00:04;;;;;;;1999.90;999.90;;;12.10;99.90;;;;;;5064473;28;20032;-79
2023/03/24 07:02:34;;;;;;;1999.90;999.90;;;12.10;99.90;;;;;;5055396;28;20029;-73
2023/03/24 07:05:07;;;;;;;1999.90;999.90;;;12.20;99.90;;;;;;5050845;28;20049;-79
2023/03/24 07:07:34;;;;;;;1999.90;999.90;;;12.20;99.90;;;;;;5051328;28;20041;-73
2023/03/24 07:10:00;;;;;;;1999.90;999.90;;;12.10;99.90;;;;;;5046884;28;20028;-73
2023/03/24 07:12:26;;;;;;;1999.90;999.90;;;12.10;99.90;;;;;;5049903;28;20146;-77
2023/03/24 07:14:52;;;;;;;1999.90;999.90;;;12.00;99.90;;;;;;5049543;28;20112;-79
2023/03/24 07:17:18;;;;;;;1999.90;999.90;;;12.00;99.90;;;;;;5051177;28;20117;-74
2023/03/24 07:19:44;;;;;;;1999.90;999.90;;;12.10;99.90;;;;;;5049371;28;20029;-73
2023/03/24 07:22:10;;;;;;;1999.90;999.90;;;12.10;99.90;;;;;;5049607;28;20032;-73
2023/03/24 07:24:36;;;;;;;1999.90;999.90;;;12.30;99.90;;;;;;5049905;28;20028;-79
2023/03/24 07:27:02;;;;;;;1999.90;999.90;;;12.40;99.90;;;;;;5049374;28;20037;-73
2023/03/24 07:29:28;;;;;;;1999.90;999.90;;;12.40;99.90;;;;;;5049885;28;20120;-79
2023/03/24 07:31:57;;;;;;;1999.90;999.90;;;12.40;99.90;;;;;;5052679;28;20067;-73
2023/03/24 07:34:24;;;;;;;1999.90;999.90;;;12.40;99.90;;;;;;5053556;28;20506;-73
2023/03/24 07:36:50;;;;;;;1999.90;999.90;;;12.40;99.90;;;;;;5053415;28;20024;-73
2023/03/24 07:39:16;;;;;;;1999.90;999.90;;;12.50;99.90;;;;;;5053760;28;20526;-73
2023/03/24 07:41:42;;;;;;;1999.90;999.90;;;12.70;99.90;;;;;;5050828;28;20033;-73
2023/03/24 07:44:08;;;;;;;1999.90;999.90;;;13.30;99.90;;;;;;5067845;28;20112;-79
2023/03/24 07:46:34;;;;;;;1999.90;999.90;;;12.90;99.90;;;;;;5062828;28;20029;-76
2023/03/24 07:49:01;;;;;;;1999.90;999.90;;;12.80;99.90;;;;;;5053221;28;20131;-73
2023/03/24 07:51:27;;;;;;;1999.90;999.90;;;12.90;99.90;;;;;;5053425;28;20029;-73
2023/03/24 07:53:53;;;;;;;1999.90;999.90;;;12.90;99.90;;;;;;5053000;28;20033;-80
2023/03/24 07:56:19;;;;;;;1999.90;999.90;;;13.00;99.90;;;;;;5052746;28;20067;-80
2023/03/24 07:58:44;;;;;;;1999.90;999.90;;;13.00;99.90;;;;;;5055934;28;20028;-73
2023/03/24 08:01:10;;;;;;;1999.90;999.90;;;13.10;99.90;;;;;;5065330;28;20033;-73
2023/03/24 08:03:37;;;;;;;1999.90;999.90;;;13.30;99.90;;;;;;5051270;28;20044;-76
2023/03/24 08:06:03;;;;;;;1999.90;999.90;;;14.00;99.90;;;;;;5051470;28;20029;-74
2023/03/24 08:08:30;;;;;;;1999.90;999.90;;;14.80;99.90;;;;;;5053771;28;20047;-74
2023/03/24 08:10:56;;;;;;;1999.90;999.90;;;14.40;99.90;;;;;;5042864;28;20155;-73
2023/03/24 08:13:22;;;;;;;1999.90;999.90;;;14.00;99.90;;;;;;5047686;28;20049;-73
2023/03/24 08:15:48;;;;;;;1999.90;999.90;;;13.50;99.90;;;;;;5048450;28;20083;-79
2023/03/24 08:18:14;;;;;;;1999.90;999.90;;;15.00;99.90;;;;;;5051750;28;20039;-80
2023/03/24 08:20:40;;;;;;;1999.90;999.90;;;15.80;99.90;;;;;;5044934;28;20108;-81
2023/03/24 08:23:07;;;;;;;1999.90;999.90;;;16.00;99.90;;;;;;5051683;28;20132;-74
2023/03/24 08:25:34;;;;;;;1999.90;999.90;;;15.70;99.90;;;;;;5050990;28;20111;-73
2023/03/24 08:27:59;;;;;;;1999.90;999.90;;;15.40;99.90;;;;;;5051012;28;20033;-73
2023/03/24 08:30:27;;;;;;;1999.90;999.90;;;15.10;99.90;;;;;;5051383;28;20510;-80
2023/03/24 08:33:00;;;;;;;1999.90;999.90;;;14.00;99.90;;;;;;5048688;28;20021;-73
2023/03/24 08:35:31;;;;;;;1999.90;999.90;;;13.70;99.90;;;;;;5049035;28;20064;-77
2023/03/24 08:38:00;;;;;;;1999.90;999.90;;;13.90;99.90;;;;;;5047306;28;20037;-76
2023/03/24 08:40:28;;;;;;;1999.90;999.90;;;14.10;99.90;;;;;;5047290;28;20557;-74
2023/03/24 08:42:57;;;;;;;1999.90;999.90;;;16.10;99.90;;;;;;5051514;28;20120;-79
2023/03/24 08:45:26;;;;;;;1999.90;999.90;;;17.30;99.90;;;;;;5050523;28;20420;-73
2023/03/24 08:47:52;;;;;;;1999.90;999.90;;;16.30;99.90;;;;;;5061383;28;20051;-78
2023/03/24 08:50:23;;;;;;;1999.90;999.90;;;16.80;99.90;;;;;;5056310;28;20373;-73
2023/03/24 08:52:49;;;;;;;1999.90;999.90;;;15.50;99.90;;;;;;5051303;28;20550;-80
2023/03/24 08:55:17;;;;;;;1999.90;999.90;;;14.50;99.90;;;;;;5051745;28;20515;-80
2023/03/24 08:57:42;;;;;;;1999.90;999.90;;;14.30;99.90;;;;;;5042763;28;20411;-77
2023/03/24 09:00:13;;;;;;;1999.90;999.90;;;14.00;99.90;;;;;;5049834;28;20033;-80
2023/03/24 09:02:39;;;;;;;1999.90;999.90;;;14.00;99.90;;;;;;5050932;28;20033;-73
2023/03/24 09:05:05;;;;;;;1999.90;999.90;;;16.30;99.90;;;;;;5050538;28;20365;-74
2023/03/24 09:07:30;;;;;;;1999.90;999.90;;;18.00;99.90;;;;;;5051000;28;20108;-78
2023/03/24 09:09:56;;;;;;;1999.90;999.90;;;16.00;99.90;;;;;;5047157;28;20083;-77
2023/03/24 09:12:22;;;;;;;1999.90;999.90;;;14.90;99.90;;;;;;5046588;28;20083;-74
2023/03/24 09:14:49;;;;;;;1999.90;999.90;;;15.50;99.90;;;;;;5050429;28;20055;-78
2023/03/24 09:17:15;;;;;;;1999.90;999.90;;;17.30;99.90;;;;;;5050795;28;20025;-74
2023/03/24 09:19:42;;;;;;;1999.90;999.90;;;17.60;99.90;;;;;;5045860;28;20037;-74
2023/03/24 09:22:07;;;;;;;1999.90;999.90;;;16.70;99.90;;;;;;5047791;28;20078;-73
2023/03/24 09:24:33;;;;;;;1999.90;999.90;;;16.10;99.90;;;;;;5050552;28;20036;-78
2023/03/24 09:26:59;;;;;;;1999.90;999.90;;;16.10;99.90;;;;;;5051011;28;20032;-80
2023/03/24 09:29:24;;;;;;;1999.90;999.90;;;15.60;99.90;;;;;;5050734;28;20120;-78
2023/03/24 09:31:52;;;;;;;1999.90;999.90;;;14.90;99.90;;;;;;5049843;28;20377;-74
2023/03/24 09:34:18;;;;;;;1999.90;999.90;;;16.40;99.90;;;;;;5041456;28;20035;-78
2023/03/24 09:36:44;;;;;;;1999.90;999.90;;;16.60;99.90;;;;;;5050167;28;20033;-73
2023/03/24 09:39:10;;;;;;;1999.90;999.90;;;16.20;99.90;;;;;;5047691;28;20387;-80
2023/03/24 09:41:35;;;;;;;1999.90;999.90;;;16.40;99.90;;;;;;5051993;28;20396;-77
2023/03/24 09:44:10;;;;;;;1999.90;999.90;;;16.40;99.90;;;;;;5046036;28;20104;-73
2023/03/24 09:46:46;;;;;;;1999.90;999.90;;;16.20;99.90;;;;;;5048800;28;20025;-73
2023/03/24 09:49:19;;;;;;;1999.90;999.90;;;16.70;99.90;;;;;;5049883;28;20048;-78
2023/03/24 09:51:45;;;;;;;1999.90;999.90;;;16.40;99.90;;;;;;5049379;28;20032;-80
2023/03/24 09:54:50;;;;;;;1999.90;999.90;;;16.50;99.90;;;;;;5057683;28;20029;-80
2023/03/24 09:57:49;;;;;;;1999.90;999.90;;;16.20;99.90;;;;;;5046315;28;20037;-74
2023/03/24 10:00:17;;;;;;;1999.90;999.90;;;15.70;99.90;;;;;;5021224;28;20432;-81
2023/03/24 10:02:43;;;;;;;1999.90;999.90;;;15.90;99.90;;;;;;5046867;28;20390;-74
2023/03/24 10:05:20;;;;;;;1999.90;999.90;;;15.60;99.90;;;;;;5050455;28;20039;-80
2023/03/24 10:08:03;;;;;;;1999.90;999.90;;;15.60;99.90;;;;;;5048988;28;20399;-79
2023/03/24 10:10:55;;;;;;;1999.90;999.90;;;15.70;99.90;;;;;;5046944;28;20091;-82
2023/03/24 10:13:39;;;;;;;1999.90;999.90;;;16.00;99.90;;;;;;5047985;28;20029;-73
2023/03/24 10:16:43;;;;;;;1999.90;999.90;;;15.60;99.90;;;;;;5047197;28;20025;-74
2023/03/24 10:19:11;;;;;;;1999.90;999.90;;;15.60;99.90;;;;;;5050726;28;20074;-80
2023/03/24 10:21:40;;;;;;;1999.90;999.90;;;15.50;99.90;;;;;;5049075;28;20387;-73
2023/03/24 10:24:28;;;;;;;1999.90;999.90;;;15.60;99.90;;;;;;5048262;28;20112;-73
2023/03/24 10:27:27;;;;;;;1999.90;999.90;;;15.50;99.90;;;;;;5051672;28;20024;-80
2023/03/24 10:30:13;;;;;;;1999.90;999.90;;;15.70;99.90;;;;;;5045850;28;20404;-73
2023/03/24 10:32:41;;;;;;;1999.90;999.90;;;15.50;99.90;;;;;;5048465;28;20029;-77
2023/03/24 10:35:25;;;;;;;1999.90;999.90;;;15.40;99.90;;;;;;5047889;28;20025;-79
2023/03/24 10:37:51;;;;;;;1999.90;999.90;;;15.50;99.90;;;;;;5047317;28;20040;-78
2023/03/24 10:40:21;;;;;;;1999.90;999.90;;;15.50;99.90;;;;;;5048691;28;20025;-78
2023/03/24 10:42:48;;;;;;;1999.90;999.90;;;15.50;99.90;;;;;;5052314;28;20507;-80
2023/03/24 10:45:25;;;;;;;1999.90;999.90;;;15.40;99.90;;;;;;5069366;28;20044;-79
2023/03/24 10:47:55;;;;;;;1999.90;999.90;;;15.50;99.90;;;;;;5044147;28;20049;-73
2023/03/24 10:50:26;;;;;;;1999.90;999.90;;;15.40;99.90;;;;;;5048233;28;20047;-73
2023/03/24 10:52:54;;;;;;;1999.90;999.90;;;15.50;99.90;;;;;;5055404;28;20025;-81
2023/03/24 10:55:22;;;;;;;1999.90;999.90;;;15.50;99.90;;;;;;5052507;28;20036;-79
2023/03/24 10:57:55;;;;;;;1999.90;999.90;;;15.50;99.90;;;;;;5049090;28;20423;-80
2023/03/24 11:00:28;;;;;;;1999.90;999.90;;;15.80;99.90;;;;;;5049672;28;20027;-74
2023/03/24 11:03:04;;;;;;;1999.90;999.90;;;16.20;99.90;;;;;;5047778;28;20095;-74
2023/03/24 11:05:33;;;;;;;1999.90;999.90;;;16.30;99.90;;;;;;5047532;28;20048;-79
2023/03/24 11:08:27;;;;;;;1999.90;999.90;;;15.80;99.90;;;;;;5048718;28;20108;-73
2023/03/24 11:10:54;;;;;;;1999.90;999.90;;;15.20;99.90;;;;;;5047570;28;20037;-80
2023/03/24 11:13:30;;;;;;;1999.90;999.90;;;15.20;99.90;;;;;;5056352;28;20432;-72
2023/03/24 11:16:25;;;;;;;1999.90;999.90;;;15.40;99.90;;;;;;5048300;28;20021;-73
2023/03/24 11:19:02;;;;;;;1999.90;999.90;;;15.30;99.90;;;;;;5049962;28;20025;-80
2023/03/24 11:21:30;;;;;;;1999.90;999.90;;;15.50;99.90;;;;;;5040575;28;20498;-79
2023/03/24 11:24:01;;;;;;;1999.90;999.90;;;15.50;99.90;;;;;;5049066;28;20514;-81
2023/03/24 11:26:34;;;;;;;1999.90;999.90;;;15.50;99.90;;;;;;5046361;28;20033;-80
2023/03/24 11:29:11;;;;;;;1999.90;999.90;;;16.00;99.90;;;;;;5044366;28;20064;-74
2023/03/24 11:31:38;;;;;;;1999.90;999.90;;;15.50;99.90;;;;;;5043645;28;20068;-81
2023/03/24 11:34:12;;;;;;;1999.90;999.90;;;16.10;99.90;;;;;;5045944;28;20020;-81
2023/03/24 11:36:41;;;;;;;1999.90;999.90;;;15.70;99.90;;;;;;5047805;28;20078;-80
2023/03/24 11:39:16;;;;;;;1999.90;999.90;;;15.40;99.90;;;;;;5049977;28;20044;-81
2023/03/24 11:42:04;;;;;;;1999.90;999.90;;;15.30;99.90;;;;;;5048053;28;20468;-81
2023/03/24 11:44:51;;;;;;;1999.90;999.90;;;15.30;99.90;;;;;;5049158;28;20037;-78
2023/03/24 11:47:32;;;;;;;1999.90;999.90;;;15.50;99.90;;;;;;5053372;28;20392;-82
2023/03/24 11:50:10;;;;;;;1999.90;999.90;;;15.40;99.90;;;;;;5057497;28;20021;-80
2023/03/24 11:52:35;;;;;;;1999.90;999.90;;;15.70;99.90;;;;;;5050551;28;20025;-72
2023/03/24 11:55:05;;;;;;;1999.90;999.90;;;15.70;99.90;;;;;;5051128;28;20021;-80
2023/03/24 11:57:45;;;;;;;1999.90;999.90;;;15.40;99.90;;;;;;5052871;28;20356;-80
2023/03/24 12:00:23;;;;;;;1999.90;999.90;;;15.30;99.90;;;;;;5050353;28;20029;-80
2023/03/24 12:03:04;;;;;;;1999.90;999.90;;;15.00;99.90;;;;;;5051631;28;20029;-79
2023/03/24 12:05:45;;;;;;;1999.90;999.90;;;15.20;99.90;;;;;;5044224;28;20028;-72
2023/03/24 12:08:19;;;;;;;1999.90;999.90;;;15.40;99.90;;;;;;5054143;28;20033;-73
2023/03/24 12:11:06;;;;;;;1999.90;999.90;;;15.10;99.90;;;;;;5044766;28;20020;-80
2023/03/24 12:13:36;;;;;;;1999.90;999.90;;;15.50;99.90;;;;;;5053069;28;20477;-79
2023/03/24 12:16:20;;;;;;;1999.90;999.90;;;15.40;99.90;;;;;;5052182;28;20134;-79
2023/03/24 12:19:12;;;;;;;1999.90;999.90;;;15.40;99.90;;;;;;5068655;28;20021;-73
2023/03/24 12:21:46;;;;;;;1999.90;999.90;;;15.50;99.90;;;;;;5037857;28;20114;-79